Flight Track Log - Related Links

Times and Time Zones

All times are in EDT time to prevent confusion due to time zone crossing. See the N414CS flight status page for this flight to view local times or setup timezone preferences in your user account.

Time Position Orientation Groundspeed Altitude Reporting Facility
EDT Latitude Longitude Course Direction KTS MPH feet Rate Location/Type
Sun 12:21:09 PM 36.2239 -80.3064 30° Northeast 186 214 2,900  Level Washington Center
Sun 12:22:11 PM 36.2539 -80.3339 324° Northwest 164 189 3,400 541 Climbing Washington Center
Sun 12:23:11 PM 36.2883 -80.3644 324° Northwest 145 167 4,000 661 Climbing Washington Center
Sun 12:24:09 PM 36.3200 -80.3561 12° North 120 138 4,700 610 Climbing Washington Center
Sun 12:25:00 PM 36.4109 -80.0168 31° Northeast  Level FlightAware Approximate
Sun 12:25:09 PM 36.3522 -80.3322 31° Northeast 121 139 5,200  Level Washington Center
Sun 12:26:00 PM 36.4552 -79.9796 30° Northeast  Level FlightAware Approximate
Sun 12:26:11 PM 36.3931 -80.2986 34° Northeast 154 177 5,900  Level Washington Center
Sun 12:27:09 PM 36.4317 -80.2750 26° Northeast 154 177 6,400 559 Climbing Washington Center
Sun 12:28:09 PM 36.4700 -80.2517 26° Northeast 149 171 7,000 595 Climbing Washington Center
Sun 12:29:10 PM 36.5025 -80.2225 36° Northeast 149 171 7,600 541 Climbing Washington Center
Sun 12:30:11 PM 36.5392 -80.1936 32° Northeast 149 171 8,100 545 Climbing Washington Center
Sun 12:31:11 PM 36.5736 -80.1622 36° Northeast 149 171 8,700 661 Climbing Washington Center
Sun 12:32:09 PM 36.6147 -80.1256 36° Northeast 149 171 9,400 610 Climbing Washington Center
Sun 12:33:09 PM 36.6514 -80.0967 32° Northeast 149 171 9,900 545 Climbing Washington Center
Sun 12:34:10 PM 36.6878 -80.0678 32° Northeast 149 171 10,500 541 Climbing Washington Center
Sun 12:35:11 PM 36.7264 -80.0389 31° Northeast 149 171 11,000 248 Climbing Washington Center
Sun 12:36:11 PM 36.7672 -80.0128 27° Northeast 159 183 11,000  Level Washington Center
Sun 12:37:10 PM 36.8103 -79.9764 34° Northeast 170 196 11,000  Level Washington Center
Sun 12:38:10 PM 36.8511 -79.9397 36° Northeast 175 201 11,000  Level Washington Center
Sun 12:39:10 PM 36.8983 -79.9058 30° Northeast 175 201 11,000  Level Washington Center
Sun 12:40:11 PM 36.9497 -79.8697 29° Northeast 182 209 11,000  Level Washington Center
Sun 12:41:11 PM 36.9967 -79.8361 30° Northeast 187 215 11,000  Level Washington Center
Sun 12:42:09 PM 37.0419 -79.7994 33° Northeast 187 215 11,000  Level Washington Center
Sun 12:43:10 PM 37.0869 -79.7656 31° Northeast 187 215 11,000  Level Washington Center
Sun 12:44:11 PM 37.1278 -79.7314 34° Northeast 187 215 11,000 50 Level Washington Center
Sun 12:45:09 PM 37.1747 -79.6972 30° Northeast 187 215 11,100  Climbing Washington Center
Sun 12:46:09 PM 37.2236 -79.6711 23° Northeast 187 215 11,000 -49 Descending Washington Center
Sun 12:47:11 PM 37.2789 -79.6428 22° Northeast 181 208 11,000 50 Level Washington Center
Sun 12:48:08 PM 37.3278 -79.6167 23° Northeast 181 208 11,100 51 Climbing Washington Center
Sun 12:49:09 PM 37.3767 -79.5906 23° Northeast 181 208 11,100  Level Washington Center
Sun 12:50:10 PM 37.4275 -79.5669 20° North 186 214 11,100  Level Washington Center
Sun 12:51:11 PM 37.4783 -79.5408 22° Northeast 195 224 11,100 -50 Level Washington Center
Sun 12:52:09 PM 37.5250 -79.5172 22° Northeast 195 224 11,000 -51 Descending Washington Center
Sun 12:53:09 PM 37.5800 -79.4911 21° North 195 224 11,000  Level Washington Center
Sun 12:54:10 PM 37.6247 -79.4672 23° Northeast 195 224 11,000  Level Washington Center
Sun 12:55:09 PM 37.6797 -79.4411 21° North 195 224 11,000 101 Level Washington Center
Sun 12:56:09 PM 37.7264 -79.4200 20° North 195 224 11,200 99 Climbing Washington Center
Sun 12:57:10 PM 37.7750 -79.3989 19° North 195 224 11,200  Level Washington Center
Sun 12:58:10 PM 37.8322 -79.3728 20° North 195 224 11,200 -50 Level Washington Center
Sun 12:59:11 PM 37.8808 -79.3489 21° North 195 224 11,100  Descending Washington Center
Sun 01:00:11 PM 37.9317 -79.3278 18° North 190 219 11,200 51 Climbing Washington Center
Sun 01:01:09 PM 37.9844 -79.3067 17° North 190 219 11,200 -102 Level Washington Center
Sun 01:02:09 PM 38.0308 -79.2878 18° North 190 219 11,000 -100 Descending Washington Center
Sun 01:03:09 PM 38.0772 -79.2689 18° North 190 219 11,000  Level Washington Center
Sun 01:04:10 PM 38.1300 -79.2506 15° North 190 219 11,000  Level Washington Center
Sun 01:05:08 PM 38.1869 -79.2269 18° North 190 219 11,000  Level Washington Center
Sun 01:06:09 PM 38.2378 -79.2056 18° North 190 219 11,000  Level Washington Center
Sun 01:07:10 PM 38.2883 -79.1869 16° North 190 219 11,000  Level Washington Center
Sun 01:08:10 PM 38.3411 -79.1681 16° North 190 219 11,000  Level Washington Center
Sun 01:09:11 PM 38.3853 -79.1544 14° North 190 219 11,000  Level Washington Center
Sun 01:10:10 PM 38.4339 -79.1356 17° North 190 219 11,000  Level Washington Center
Sun 01:11:10 PM 38.4822 -79.1167 17° North 190 219 11,000  Level Washington Center
Sun 01:13:09 PM 38.5878 -79.0764 17° North 190 219 11,000  Level Washington Center
Sun 01:14:09 PM 38.6383 -79.0575 16° North 190 219 11,000  Level Washington Center
Sun 01:15:10 PM 38.6869 -79.0306 23° Northeast 190 219 11,000  Level Washington Center
Sun 01:16:10 PM 38.7339 -78.9956 30° Northeast 190 219 11,000  Level Washington Center
Sun 01:17:11 PM 38.7767 -78.9603 33° Northeast 190 219 11,000  Level Washington Center
Sun 01:18:09 PM 38.8233 -78.9278 28° Northeast 190 219 11,000  Level Washington Center
Sun 01:19:10 PM 38.8700 -78.8953 28° Northeast 190 219 11,000  Level Washington Center
Sun 01:20:11 PM 38.9192 -78.8600 29° Northeast 190 219 11,000  Level Washington Center
Sun 01:21:08 PM 38.9678 -78.8275 27° Northeast 190 219 11,000  Level Washington Center
Sun 01:22:10 PM 39.0167 -78.7922 29° Northeast 190 219 11,000  Level Washington Center
Sun 01:23:10 PM 39.0656 -78.7622 25° Northeast 190 219 11,000  Level Washington Center
Sun 01:24:11 PM 39.1142 -78.7297 27° Northeast 190 219 11,000  Level Washington Center
Sun 01:25:11 PM 39.1611 -78.6969 28° Northeast 190 219 11,000  Level Washington Center
Sun 01:26:08 PM 39.2097 -78.6642 28° Northeast 190 219 11,000  Level Washington Center
Sun 01:27:09 PM 39.2608 -78.6286 28° Northeast 190 219 11,000  Level Washington Center
Sun 01:28:10 PM 39.3094 -78.5931 30° Northeast 190 219 11,000  Level Washington Center
Sun 01:29:11 PM 39.3583 -78.5603 27° Northeast 190 219 11,000  Level Washington Center
Sun 01:30:09 PM 39.4031 -78.5164 37° Northeast 196 226 11,000  Level Washington Center
Sun 01:31:09 PM 39.4442 -78.4617 46° Northeast 196 226 11,000  Level Washington Center
Sun 01:32:10 PM 39.4828 -78.4067 48° Northeast 196 226 11,000  Level Washington Center
Sun 01:33:10 PM 39.5217 -78.3517 47° Northeast 201 231 11,000  Level Washington Center
Sun 01:34:11 PM 39.5603 -78.2994 46° Northeast 201 231 11,000  Level Washington Center
Sun 01:35:09 PM 39.5969 -78.2442 49° Northeast 201 231 11,000  Level Washington Center
Sun 01:36:09 PM 39.6336 -78.1889 49° Northeast 201 231 11,000  Level Washington Center
Sun 01:37:11 PM 39.6722 -78.1364 46° Northeast 201 231 11,000 46 Level Washington Center
Sun 01:38:19 PM 39.7097 -78.0794 49° Northeast 197 227 11,100 47 Climbing New York Center
Sun 01:39:20 PM 39.7486 -78.0267 46° Northeast 197 227 11,100  Level New York Center
Sun 01:40:17 PM 39.7853 -77.9711 49° Northeast 197 227 11,100 -51 Level New York Center
Sun 01:41:18 PM 39.8242 -77.9156 48° Northeast 197 227 11,000 -50 Descending New York Center
Sun 01:42:18 PM 39.8608 -77.8597 49° Northeast 197 227 11,000  Level New York Center
Sun 01:43:19 PM 39.8994 -77.8069 46° Northeast 197 227 11,000  Level New York Center
Sun 01:44:20 PM 39.9383 -77.7511 48° Northeast 202 232 11,000  Level New York Center
Sun 01:45:17 PM 39.9769 -77.6956 48° Northeast 202 232 11,000  Level New York Center
Sun 01:46:17 PM 40.0156 -77.6422 47° Northeast 202 232 11,000  Level New York Center
Sun 01:47:18 PM 40.0586 -77.5814 47° Northeast 202 232 11,000  Level New York Center
Sun 01:48:19 PM 40.0972 -77.5281 47° Northeast 202 232 11,000  Level New York Center
Sun 01:49:19 PM 40.1358 -77.4722 48° Northeast 202 232 11,000  Level New York Center
Sun 01:50:19 PM 40.1744 -77.4161 48° Northeast 202 232 11,000  Level New York Center
Sun 01:51:17 PM 40.2131 -77.3600 48° Northeast 202 232 11,000  Level New York Center
Sun 01:52:17 PM 40.2517 -77.3039 48° Northeast 202 232 11,000  Level New York Center
Sun 01:53:18 PM 40.2900 -77.2503 47° Northeast 202 232 11,000  Level New York Center
Sun 01:54:18 PM 40.3286 -77.1911 49° Northeast 202 232 11,000  Level New York Center
Sun 01:55:17 PM 40.3669 -77.1375 47° Northeast 202 232 11,000  Level New York Center
Sun 01:56:17 PM 40.4056 -77.0811 48° Northeast 202 232 11,000  Level New York Center
Sun 01:57:18 PM 40.4419 -77.0244 50° Northeast 202 232 11,000  Level New York Center
Sun 01:58:19 PM 40.4822 -76.9681 47° Northeast 202 232 11,000  Level New York Center
Sun 01:59:20 PM 40.5228 -76.9117 47° Northeast 202 232 11,000  Level New York Center
Sun 02:00:19 PM 40.5611 -76.8550 48° Northeast 202 232 11,000  Level New York Center
Sun 02:01:17 PM 40.5994 -76.7981 48° Northeast 207 238 11,000  Level New York Center
Sun 02:02:18 PM 40.6358 -76.7383 51° Northeast 202 232 11,000  Level New York Center
Sun 02:03:17 PM 40.6736 -76.6897 44° Northeast 202 232 11,000  Level New York Center
Sun 02:04:17 PM 40.7142 -76.6303 48° Northeast 202 232 11,000  Level New York Center
Sun 02:05:18 PM 40.7547 -76.5706 48° Northeast 202 232 11,000  Level New York Center
Sun 02:06:18 PM 40.7906 -76.5217 46° Northeast 202 232 11,000  Level New York Center
Sun 02:07:19 PM 40.8286 -76.4644 49° Northeast 202 232 11,000  Level New York Center
Sun 02:08:17 PM 40.8689 -76.4075 47° Northeast 202 232 11,000  Level New York Center
Sun 02:09:18 PM 40.9050 -76.3500 50° Northeast 202 232 11,000  Level New York Center
Sun 02:10:18 PM 40.9408 -76.2953 49° Northeast 197 227 11,000  Level New York Center
Sun 02:11:19 PM 40.9764 -76.2458 46° Northeast 197 227 11,000 -50 Level New York Center
Sun 02:12:17 PM 41.0100 -76.1936 50° Northeast 200 230 10,900  Descending New York Center
Sun 02:13:18 PM 41.0483 -76.1333 50° Northeast 194 223 11,000 50 Climbing New York Center
Sun 02:14:18 PM 41.0842 -76.0783 49° Northeast 194 223 11,000  Level New York Center
Sun 02:15:19 PM 41.1156 -76.0286 50° Northeast 199 229 11,000  Level New York Center
Sun 02:16:17 PM 41.1511 -75.9761 48° Northeast 199 229 11,000  Level New York Center
Sun 02:17:18 PM 41.1911 -75.9186 47° Northeast 194 223 11,000  Level New York Center
Sun 02:18:19 PM 41.2267 -75.8661 48° Northeast 194 223 11,000  Level New York Center
Sun 02:19:19 PM 41.2556 -75.8242 47° Northeast 194 223 11,000 -51 Level New York Center
Sun 02:20:17 PM 41.2978 -75.7611 48° Northeast 194 223 10,900  Descending New York Center
Sun 02:21:17 PM 41.3311 -75.7111 48° Northeast 184 212 11,000 50 Climbing New York Center
Sun 02:22:18 PM 41.3581 -75.6633 53° Northeast 184 212 11,000  Level New York Center
Sun 02:23:19 PM 41.3917 -75.6075 51° Northeast 179 206 11,000  Level New York Center
Sun 02:24:20 PM 41.4231 -75.5544 52° Northeast 179 206 11,000  Level New York Center
Sun 02:25:18 PM 41.4586 -75.4989 49° Northeast 179 206 11,000  Level New York Center
Sun 02:26:18 PM 41.4881 -75.4372 57° Northeast 179 206 11,000  Level New York Center
Sun 02:27:19 PM 41.5153 -75.3783 58° Northeast 185 213 11,000  Level New York Center
Sun 02:29:11 PM 41.5711 -75.2594 58° Northeast 189 217 11,000  Level Boston Center
Sun 02:30:11 PM 41.5978 -75.1967 60° Northeast 189 217 11,000  Level Boston Center
Sun 02:31:11 PM 41.6264 -75.1369 57° Northeast 189 217 11,000  Level Boston Center
Sun 02:32:11 PM 41.6550 -75.0714 60° Northeast 194 223 11,000  Level Boston Center
Sun 02:33:11 PM 41.6814 -75.0114 59° Northeast 194 223 11,000  Level Boston Center
Sun 02:34:11 PM 41.7078 -74.9456 62° Northeast 194 223 11,000  Level Boston Center
Sun 02:35:11 PM 41.7342 -74.8800 62° Northeast 199 229 11,000 -50 Level Boston Center
Sun 02:36:11 PM 41.7606 -74.8142 62° Northeast 199 229 10,900 -250 Descending Boston Center
Sun 02:37:11 PM 41.7850 -74.7456 64° Northeast 199 229 10,500 -400 Descending Boston Center
Sun 02:38:11 PM 41.8175 -74.6797 56° Northeast 199 229 10,100 -400 Descending Boston Center
Sun 02:39:11 PM 41.8481 -74.6139 58° Northeast 204 235 9,700 -400 Descending Boston Center
Sun 02:40:11 PM 41.8742 -74.5536 60° Northeast 204 235 9,300 -300 Descending Boston Center
Sun 02:41:11 PM 41.9047 -74.4792 61° Northeast 204 235 9,100 -150 Descending Boston Center
Sun 02:42:11 PM 41.9308 -74.4186 60° Northeast 204 235 9,000 -50 Descending Boston Center
Sun 02:43:11 PM 41.9572 -74.3469 64° Northeast 199 229 9,000 -50 Level Boston Center
Sun 02:44:11 PM 41.9808 -74.2944 59° Northeast 194 223 8,900 -59 Descending Boston Center
Sun 02:44:52 PM 42.0025 -74.2419 61° Northeast 186 214 8,900  Level Boston Center
Sun 02:45:16 PM 42.0133 -74.2200 56° Northeast 186 214 8,900  Level Boston Center
Sun 02:46:11 PM 42.0308 -74.1703 65° Northeast 186 214 8,900 52 Level Boston Center
Sun 02:47:11 PM 42.0608 -74.1067 58° Northeast 180 207 9,000 50 Climbing Boston Center
Sun 02:48:11 PM 42.0828 -74.0431 65° Northeast 189 217 9,000  Level Boston Center
Sun 02:49:11 PM 42.1106 -73.9794 60° Northeast 189 217 9,000  Level Boston Center
Sun 02:50:11 PM 42.1344 -73.9211 61° Northeast 189 217 9,000  Level Boston Center
Sun 02:51:11 PM 42.1622 -73.8517 62° Northeast 189 217 9,000  Level Boston Center
Sun 02:52:22 PM 42.1925 -73.7794 60° Northeast 194 223 9,000  Level Boston Center
Sun 02:53:22 PM 42.2244 -73.7214 53° Northeast 192 221 9,000  Level Boston Center
Sun 02:54:11 PM 42.2458 -73.6714 60° Northeast 184 212 9,000  Level Boston Center
Sun 02:55:11 PM 42.2736 -73.6017 62° Northeast 193 222 9,000  Level Boston Center
Sun 02:56:11 PM 42.2969 -73.5461 60° Northeast 193 222 9,000  Level Boston Center
Sun 02:57:11 PM 42.3228 -73.4761 63° Northeast 188 216 9,000  Level Boston Center
Sun 02:58:11 PM 42.3419 -73.4203 65° Northeast 188 216 9,000  Level Boston Center
Sun 02:59:21 PM 42.3719 -73.3394 63° Northeast 191 220 9,000  Level Boston Center
Sun 03:00:11 PM 42.3889 -73.2947 63° Northeast 188 216 9,000  Level Boston Center
Sun 03:01:11 PM 42.4164 -73.2275 61° Northeast 195 224 9,000  Level Boston Center
Sun 03:02:11 PM 42.4419 -73.1717 58° Northeast 195 224 9,000  Level Boston Center
Sun 03:03:11 PM 42.4694 -73.1014 62° Northeast 190 219 9,000  Level Boston Center
Sun 03:04:11 PM 42.4925 -73.0456 61° Northeast 185 213 9,000  Level Boston Center
Sun 03:05:11 PM 42.5178 -72.9808 62° Northeast 179 206 9,000  Level Boston Center
Sun 03:06:11 PM 42.5475 -72.9136 59° Northeast 179 206 9,000  Level Boston Center
Sun 03:07:11 PM 42.5706 -72.8572 61° Northeast 179 206 9,000  Level Boston Center
Sun 03:08:11 PM 42.5958 -72.7842 65° Northeast 179 206 9,000  Level Boston Center
Sun 03:09:11 PM 42.6231 -72.7194 60° Northeast 179 206 9,000  Level Boston Center
Sun 03:10:11 PM 42.6483 -72.6547 62° Northeast 179 206 9,000  Level Boston Center
Sun 03:11:11 PM 42.6711 -72.5925 64° Northeast 179 206 9,000  Level Boston Center
Sun 03:12:11 PM 42.6983 -72.5278 60° Northeast 179 206 9,000  Level Boston Center
Sun 03:13:11 PM 42.7233 -72.4628 62° Northeast 179 206 9,000  Level Boston Center
Sun 03:14:11 PM 42.7483 -72.4006 61° Northeast 179 206 9,000  Level Boston Center
Sun 03:15:11 PM 42.7692 -72.3325 67° East 184 212 9,000  Level Boston Center
Sun 03:16:11 PM 42.7942 -72.2817 56° Northeast 184 212 9,000  Level Boston Center
Sun 03:17:11 PM 42.8233 -72.2022 63° Northeast 189 217 9,000  Level Boston Center
Sun 03:18:11 PM 42.8439 -72.1400 66° East 194 223 9,000 -50 Level Boston Center
Sun 03:19:11 PM 42.8728 -72.0661 62° Northeast 199 229 8,900 -50 Descending Boston Center
Sun 03:20:11 PM 42.8978 -72.0064 60° Northeast 193 222 8,900  Level Boston Center
Sun 03:21:11 PM 42.9267 -71.9383 60° Northeast 193 222 8,900  Level Boston Center
Sun 03:22:11 PM 42.9492 -71.8814 62° Northeast 193 222 8,900 -450 Level Boston Center
Sun 03:23:11 PM 42.9781 -71.8017 64° Northeast 198 228 8,000 -900 Descending Boston Center
Sun 03:24:11 PM 42.9983 -71.7333 68° East 208 239 7,100 -800 Descending Boston Center
Sun 03:25:11 PM 43.0314 -71.6589 59° Northeast 210 242 6,400 -600 Descending Boston Center
Sun 03:26:11 PM 43.0581 -71.6019 57° Northeast 200 230 5,900 -600 Descending Boston Center
Sun 03:27:11 PM 43.0867 -71.5303 61° Northeast 189 217 5,200 -500 Descending Boston Center
Sun 03:28:11 PM 43.1050 -71.4703 67° East 184 212 4,900 -150 Descending Boston Center
Sun 03:29:11 PM 43.1292 -71.4044 63° Northeast 179 206 4,900 70 Level Boston Center
Sun 03:29:37 PM 43.1333 -71.3667 81° East 173 199 5,000  Climbing KA90
Sun 03:30:37 PM 43.1667 -71.3167 48° Northeast 170 196 4,900 -250 Descending KA90
Sun 03:31:37 PM 43.1833 -71.2667 65° Northeast 181 208 4,500 -350 Descending KA90
Sun 03:32:37 PM 43.2000 -71.2000 71° East 183 211 4,200 -300 Descending KA90
Sun 03:33:37 PM 43.2333 -71.1333 56° Northeast 181 208 3,900 -300 Descending KA90
Sun 03:34:37 PM 43.2500 -71.0833 65° Northeast 178 205 3,600 -300 Descending KA90
Sun 03:35:37 PM 43.2833 -71.0167 56° Northeast 174 200 3,300 -300 Descending KA90
Sun 03:36:37 PM 43.3000 -70.9667 65° Northeast 171 197 3,000 -300 Descending KA90

Login

Don't have an account? Register now (free) for customized features, flight alerts, and more!